Tuesday, April 24, 2018, 4:30 AM EDT
Back to Local

K12N, Aeroflex-andover Airport

Location: Newton, NJ, United States Lat: 41.017
Local Time: 4:30 AM EDT ( 8:30 GMT) Lon: -74.733
Time Zone: US/Eastern Elev: 583 ft

Show me the last for .
Show Decoded

2018-04-24 03:54 METAR K12N 240754Z AUTO 00000KT 03/02 A3038 RMK AO1 SLP290 T00330017 =
2018-04-24 02:54 METAR K12N 240654Z AUTO 00000KT 04/02 A3038 RMK AO1 SLP288 T00440022 =
2018-04-24 01:54 METAR K12N 240554Z AUTO 00000KT 05/02 A3039 RMK AO1 SLP291 T00500022 10139 20050
                 56008 =
2018-04-24 00:54 METAR K12N 240454Z AUTO 00000KT 07/03 A3040 RMK AO1 SLP294 T00670028 402060006 =
2018-04-23 23:54 METAR K12N 240354Z AUTO 00000KT 07/02 A3040 RMK AO1 SLP296 T00720022 =
2018-04-23 22:54 METAR K12N 240254Z AUTO 17003KT 11/00 A3041 RMK AO1 SLP298 T01060000 51008 =
2018-04-23 21:54 METAR K12N 240154Z AUTO VRB03KT 11/M01 A3041 RMK AO1 SLP298 T01111011 =
2018-04-23 20:54 METAR K12N 240054Z AUTO VRB05KT 12/M04 A3040 RMK AO1 SLP296 T01221039 =
2018-04-23 19:54 METAR K12N 232354Z AUTO VRB05KT 14/M05 A3039 RMK AO1 SLP293 T01391050 10206
                 20139 53004 =
2018-04-23 18:54 METAR K12N 232254Z AUTO 16006KT 17/M03 A3037 RMK AO1 SLP288 T01671028 =
2018-04-23 17:54 METAR K12N 232154Z AUTO VRB04KT 19/M03 A3037 RMK AO1 SLP285 T01891028 =
2018-04-23 16:54 METAR K12N 232054Z AUTO VRB05KT 19/M03 A3038 RMK AO1 SLP289 T01941033 56011 =
2018-04-23 15:54 METAR K12N 231954Z AUTO 20007KT 160V220 20/M06 A3038 RMK AO1 SLP289 T02001056 =
2018-04-23 14:54 METAR K12N 231854Z AUTO 13006KT 19/M08 A3039 RMK AO1 SLP294 T01941078 =
2018-04-23 13:54 METAR K12N 231754Z AUTO 22004KT 19/M07 A3041 RMK AO1 SLP299 T01891072 10194
                 20061 56019 =
2018-04-23 12:54 METAR K12N 231654Z AUTO 36004KT 18/M05 A3043 RMK AO1 SLP305 T01831050 =
2018-04-23 11:54 METAR K12N 231554Z AUTO 35003KT 18/M06 A3045 RMK AO1 SLP312 T01781056 =
2018-04-23 10:54 METAR K12N 231454Z AUTO 00000KT 17/M04 A3047 RMK AO1 SLP318 T01671044 58001 =
2018-04-23 09:54 METAR K12N 231354Z AUTO 36005KT 13/M03 A3047 RMK AO1 SLP322 T01281033 =
2018-04-23 08:54 METAR K12N 231254Z AUTO VRB03KT 10/M03 A3047 RMK AO1 SLP323 T01001033 =
2018-04-23 07:54 METAR K12N 231154Z AUTO 00000KT 06/M01 A3047 RMK AO1 SLP321 T00611011 10061
                 20006 53014 =
2018-04-23 06:54 METAR K12N 231054Z AUTO 00000KT 02/M01 A3046 RMK AO1 SLP317 T00171011 =
2018-04-23 05:54 METAR K12N 230954Z AUTO VRB03KT 01/M01 A3043 RMK AO1 SLP309 T00111011 =
2018-04-23 04:54 METAR K12N 230854Z AUTO 00000KT 01/M02 A3043 RMK AO1 SLP306 T00111017 51009 =

Support USWX by starting your Amazon purchase here.